Time;durP1;ratioP1;P1;durP2;ratioP2;P2;SDS_P1;SDS_P2;PMS_P1;PMS_P2;Temp;Humidity;BMP_temperature;BMP_pressure;BME280_temperature;BME280_humidity;BME280_pressure;Samples;Min_cycle;Max_cycle;Signal;HPM_P1;HPM_P2
2022/01/06 00:00:37;;;;;;;;;;;2.10;99.90;;;;;;4991723;28;19917;-72
2022/01/06 00:03:03;;;;;;;;;;;2.10;99.90;;;;;;4989984;28;20448;-74
2022/01/06 00:05:29;;;;;;;;;;;1.90;99.90;;;;;;4982941;28;19914;-74
2022/01/06 00:07:54;;;;;;;;;;;2.00;99.90;;;;;;4973544;28;19918;-74
2022/01/06 00:10:20;;;;;;;;;;;2.00;99.90;;;;;;4973147;28;20025;-73
2022/01/06 00:25:34;;;;;;;;;;;2.00;99.90;;;;;;4992262;28;20335;-73
2022/01/06 00:28:00;;;;;;;;;;;2.00;99.90;;;;;;4990205;28;19934;-73
2022/01/06 00:30:25;;;;;;;;;;;2.00;99.90;;;;;;4992054;28;20323;-72
2022/01/06 00:32:51;;;;;;;;;;;2.00;99.90;;;;;;4992358;28;20008;-72
2022/01/06 00:35:17;;;;;;;;;;;2.10;99.90;;;;;;4979607;28;19914;-73
2022/01/06 00:37:42;;;;;;;;;;;2.20;99.90;;;;;;4973431;28;20676;-73
2022/01/06 00:40:08;;;;;;;;;;;2.10;99.90;;;;;;4991083;28;19953;-73
2022/01/06 00:42:34;;;;;;;;;;;2.20;99.90;;;;;;4992051;28;19909;-74
2022/01/06 00:44:59;;;;;;;;;;;2.10;99.90;;;;;;4992106;28;19937;-74
2022/01/06 00:47:25;;;;;;;;;;;2.10;99.90;;;;;;4991955;28;19943;-72
2022/01/06 00:49:51;;;;;;;;;;;2.10;99.90;;;;;;4992260;28;19914;-74
2022/01/06 00:52:16;;;;;;;;;;;2.20;99.90;;;;;;4991738;28;19964;-72
2022/01/06 00:54:42;;;;;;;;;;;2.10;99.90;;;;;;4992066;28;19909;-74
2022/01/06 00:57:08;;;;;;;;;;;2.10;99.90;;;;;;4991897;28;20256;-73
2022/01/06 00:59:33;;;;;;;;;;;2.00;99.90;;;;;;4991925;28;19909;-74
2022/01/06 01:01:59;;;;;;;;;;;2.00;99.90;;;;;;4992062;28;19910;-74
2022/01/06 01:04:24;;;;;;;;;;;1.90;99.90;;;;;;4992028;28;19914;-72
2022/01/06 01:06:50;;;;;;;;;;;2.00;99.90;;;;;;4992144;28;19943;-74
2022/01/06 01:09:16;;;;;;;;;;;1.90;99.90;;;;;;4990553;28;19946;-73
2022/01/06 01:11:41;;;;;;;;;;;1.90;99.90;;;;;;4989202;28;20019;-75
2022/01/06 01:14:18;;;;;;;;;;;1.90;99.90;;;;;;4991879;28;20357;-74
2022/01/06 01:16:53;;;;;;;;;;;2.00;99.90;;;;;;4991979;28;19909;-74
2022/01/06 01:19:18;;;;;;;;;;;1.90;99.90;;;;;;4991714;28;19910;-73
2022/01/06 01:21:45;;;;;;;;;;;1.90;99.90;;;;;;4991751;28;20374;-74
2022/01/06 01:24:10;;;;;;;;;;;1.90;99.90;;;;;;4990858;28;19910;-74
2022/01/06 01:26:36;;;;;;;;;;;1.90;99.90;;;;;;4991752;28;19916;-74
2022/01/06 01:29:02;;;;;;;;;;;1.90;99.90;;;;;;4991585;28;19913;-74
2022/01/06 01:31:32;;;;;;;;;;;1.90;99.90;;;;;;4990248;28;19960;-73
2022/01/06 01:34:02;;;;;;;;;;;1.90;99.90;;;;;;4992946;28;19925;-74
2022/01/06 01:36:27;;;;;;;;;;;1.90;99.90;;;;;;4995136;28;19914;-72
2022/01/06 01:38:53;;;;;;;;;;;2.00;99.90;;;;;;4995305;28;19992;-73
2022/01/06 01:41:19;;;;;;;;;;;2.00;99.90;;;;;;4994988;28;20004;-74
2022/01/06 01:43:46;;;;;;;;;;;2.00;99.90;;;;;;4995167;28;20978;-74
2022/01/06 01:46:16;;;;;;;;;;;2.00;99.90;;;;;;4995040;28;19914;-74
2022/01/06 01:48:48;;;;;;;;;;;2.00;99.90;;;;;;4995120;28;19949;-73
2022/01/06 01:51:13;;;;;;;;;;;2.00;99.90;;;;;;4994913;28;20412;-72
2022/01/06 01:53:39;;;;;;;;;;;2.00;99.90;;;;;;4994988;28;19997;-73
2022/01/06 01:56:08;;;;;;;;;;;1.90;99.90;;;;;;4994759;28;20435;-73
2022/01/06 01:58:35;;;;;;;;;;;1.90;99.90;;;;;;4994623;28;19914;-74
2022/01/06 02:01:00;;;;;;;;;;;1.90;99.90;;;;;;4994573;28;19941;-74
2022/01/06 02:03:26;;;;;;;;;;;2.00;99.90;;;;;;4993419;28;19972;-73
2022/01/06 02:05:52;;;;;;;;;;;1.90;99.90;;;;;;4994935;28;20377;-74
2022/01/06 02:08:17;;;;;;;;;;;2.00;99.90;;;;;;4994602;28;19909;-74
2022/01/06 02:10:43;;;;;;;;;;;2.10;99.90;;;;;;4994514;28;19991;-74
2022/01/06 02:13:08;;;;;;;;;;;2.00;99.90;;;;;;4994677;28;19960;-74
2022/01/06 02:15:34;;;;;;;;;;;2.00;99.90;;;;;;4994346;28;19972;-73
2022/01/06 02:18:00;;;;;;;;;;;2.00;99.90;;;;;;4997062;28;20375;-74
2022/01/06 02:20:25;;;;;;;;;;;1.90;99.90;;;;;;5002564;28;19913;-72
2022/01/06 02:22:52;;;;;;;;;;;1.90;99.90;;;;;;4994517;28;19909;-74
2022/01/06 02:25:19;;;;;;;;;;;2.00;99.90;;;;;;4994287;28;20352;-74
2022/01/06 02:27:46;;;;;;;;;;;1.90;99.90;;;;;;4994003;28;19921;-72
2022/01/06 02:30:12;;;;;;;;;;;2.00;99.90;;;;;;4993939;28;19910;-72
2022/01/06 02:32:38;;;;;;;;;;;1.90;99.90;;;;;;4993824;28;19925;-74
2022/01/06 02:35:07;;;;;;;;;;;1.90;99.90;;;;;;4990762;28;19922;-74
2022/01/06 02:37:33;;;;;;;;;;;1.80;99.90;;;;;;4993793;28;19916;-72
2022/01/06 02:39:59;;;;;;;;;;;1.80;99.90;;;;;;4993958;28;19918;-73
2022/01/06 02:42:25;;;;;;;;;;;1.70;99.90;;;;;;4994103;28;19909;-73
2022/01/06 02:44:51;;;;;;;;;;;1.80;99.90;;;;;;4993041;28;20000;-73
2022/01/06 02:47:16;;;;;;;;;;;1.80;99.90;;;;;;4993898;28;19992;-74
2022/01/06 02:49:42;;;;;;;;;;;1.80;99.90;;;;;;4993896;28;19940;-74
2022/01/06 02:52:08;;;;;;;;;;;1.80;99.90;;;;;;4993694;28;19925;-73
2022/01/06 02:54:33;;;;;;;;;;;1.70;99.90;;;;;;4992359;28;20379;-74
2022/01/06 02:56:59;;;;;;;;;;;1.60;99.90;;;;;;4993404;28;19913;-74
2022/01/06 02:59:25;;;;;;;;;;;1.80;99.90;;;;;;4993812;28;19914;-72
2022/01/06 03:01:50;;;;;;;;;;;1.90;99.90;;;;;;4993728;28;20411;-74
2022/01/06 03:04:16;;;;;;;;;;;1.90;99.90;;;;;;4993366;28;20360;-72
2022/01/06 03:06:42;;;;;;;;;;;1.90;99.90;;;;;;5000832;28;19916;-73
2022/01/06 03:09:08;;;;;;;;;;;1.90;99.90;;;;;;5013086;28;20264;-72
2022/01/06 03:11:39;;;;;;;;;;;2.00;99.90;;;;;;5012701;28;19917;-74
2022/01/06 03:14:05;;;;;;;;;;;2.00;99.90;;;;;;5012785;28;19924;-74
2022/01/06 03:16:30;;;;;;;;;;;1.90;99.90;;;;;;5012929;28;20291;-74
2022/01/06 03:18:56;;;;;;;;;;;1.90;99.90;;;;;;5012917;28;20391;-73
2022/01/06 03:21:22;;;;;;;;;;;2.00;99.90;;;;;;5013192;28;19916;-74
2022/01/06 03:23:47;;;;;;;;;;;1.80;99.90;;;;;;5012824;28;20360;-74
2022/01/06 03:26:13;;;;;;;;;;;1.80;99.90;;;;;;5012890;28;19910;-73
2022/01/06 03:28:38;;;;;;;;;;;1.80;99.90;;;;;;5012506;28;19913;-73
2022/01/06 03:31:04;;;;;;;;;;;1.80;99.90;;;;;;5012439;28;19968;-74
2022/01/06 03:33:30;;;;;;;;;;;1.90;99.90;;;;;;5012247;28;19929;-74
2022/01/06 03:35:55;;;;;;;;;;;1.80;99.90;;;;;;5006018;28;19953;-73
2022/01/06 03:38:21;;;;;;;;;;;1.70;99.90;;;;;;5000024;28;19916;-72
2022/01/06 03:40:47;;;;;;;;;;;1.80;99.90;;;;;;4992569;28;20277;-73
2022/01/06 03:43:12;;;;;;;;;;;1.80;99.90;;;;;;4992578;28;19941;-72
2022/01/06 03:45:38;;;;;;;;;;;1.80;99.90;;;;;;4992871;28;19910;-72
2022/01/06 03:48:04;;;;;;;;;;;1.70;99.90;;;;;;4992737;28;19956;-75
2022/01/06 03:50:30;;;;;;;;;;;1.60;99.90;;;;;;4992661;28;19957;-72
2022/01/06 03:52:55;;;;;;;;;;;1.70;99.90;;;;;;4992452;28;20025;-72
2022/01/06 03:55:21;;;;;;;;;;;1.60;99.90;;;;;;4993164;28;19914;-74
2022/01/06 03:57:47;;;;;;;;;;;1.60;99.90;;;;;;4992060;28;19936;-72
2022/01/06 04:00:14;;;;;;;;;;;1.60;99.90;;;;;;4992267;28;19964;-74
2022/01/06 04:02:40;;;;;;;;;;;1.50;99.90;;;;;;4992380;28;19909;-74
2022/01/06 04:05:07;;;;;;;;;;;1.50;99.90;;;;;;4992655;28;19913;-75
2022/01/06 04:07:32;;;;;;;;;;;1.50;99.90;;;;;;4995624;28;20347;-72
2022/01/06 04:09:58;;;;;;;;;;;1.50;99.90;;;;;;5000201;28;20012;-74
2022/01/06 04:12:24;;;;;;;;;;;1.40;99.90;;;;;;4992633;28;20288;-74
2022/01/06 04:14:50;;;;;;;;;;;1.50;99.90;;;;;;4992264;28;20250;-72
2022/01/06 04:17:15;;;;;;;;;;;1.40;99.90;;;;;;4992059;28;19918;-72
2022/01/06 04:19:41;;;;;;;;;;;1.40;99.90;;;;;;4992295;28;19976;-73
2022/01/06 04:22:06;;;;;;;;;;;1.40;99.90;;;;;;4992427;28;19914;-74
2022/01/06 04:24:33;;;;;;;;;;;1.40;99.90;;;;;;4992381;28;19914;-72
2022/01/06 04:26:58;;;;;;;;;;;1.30;99.90;;;;;;4992464;28;19963;-74
2022/01/06 04:29:24;;;;;;;;;;;1.30;99.90;;;;;;4992474;28;20323;-73
2022/01/06 04:31:50;;;;;;;;;;;1.20;99.90;;;;;;4990320;28;19921;-72
2022/01/06 04:34:15;;;;;;;;;;;1.30;99.90;;;;;;4991568;28;19917;-72
2022/01/06 04:36:47;;;;;;;;;;;1.20;99.90;;;;;;4992159;28;19963;-73
2022/01/06 04:39:13;;;;;;;;;;;1.20;99.90;;;;;;4998292;28;19914;-72
2022/01/06 04:41:38;;;;;;;;;;;1.20;99.90;;;;;;4996766;28;19916;-73
2022/01/06 04:44:04;;;;;;;;;;;1.20;99.90;;;;;;4992079;28;20281;-73
2022/01/06 04:46:30;;;;;;;;;;;1.20;99.90;;;;;;4992183;28;19914;-72
2022/01/06 04:48:55;;;;;;;;;;;1.50;99.90;;;;;;4991912;28;19909;-73
2022/01/06 04:51:21;;;;;;;;;;;1.40;99.90;;;;;;4992014;28;19918;-73
2022/01/06 04:53:47;;;;;;;;;;;1.40;99.90;;;;;;4988611;28;19910;-72
2022/01/06 04:56:12;;;;;;;;;;;1.40;99.90;;;;;;4991738;28;19914;-73
2022/01/06 04:58:38;;;;;;;;;;;1.40;99.90;;;;;;4991810;28;19913;-72
2022/01/06 05:01:03;;;;;;;;;;;1.40;99.90;;;;;;4990574;28;19923;-72
2022/01/06 05:03:29;;;;;;;;;;;1.40;99.90;;;;;;4991462;28;19916;-73
2022/01/06 05:05:55;;;;;;;;;;;1.50;99.90;;;;;;4991933;28;20246;-73
2022/01/06 05:08:20;;;;;;;;;;;1.50;99.90;;;;;;4992735;28;19984;-73
2022/01/06 05:10:46;;;;;;;;;;;1.40;99.90;;;;;;4995163;28;19910;-73
2022/01/06 05:13:12;;;;;;;;;;;1.40;99.90;;;;;;4995549;28;19917;-74
2022/01/06 05:15:37;;;;;;;;;;;1.40;99.90;;;;;;4996376;28;19922;-73
2022/01/06 05:18:03;;;;;;;;;;;1.40;99.90;;;;;;5003440;28;20482;-73
2022/01/06 05:20:30;;;;;;;;;;;1.40;99.90;;;;;;5015091;28;19913;-73
2022/01/06 05:22:56;;;;;;;;;;;1.40;99.90;;;;;;5015101;28;20387;-73
2022/01/06 05:25:26;;;;;;;;;;;1.40;99.90;;;;;;5015039;28;19995;-73
2022/01/06 05:27:52;;;;;;;;;;;1.40;99.90;;;;;;5015233;28;19917;-74
2022/01/06 05:30:18;;;;;;;;;;;1.40;99.90;;;;;;5015039;28;19910;-73
2022/01/06 05:32:44;;;;;;;;;;;1.40;99.90;;;;;;5014620;28;20331;-73
2022/01/06 05:35:10;;;;;;;;;;;1.40;99.90;;;;;;5014635;28;19914;-73
2022/01/06 05:37:35;;;;;;;;;;;1.40;99.90;;;;;;5014578;28;19995;-73
2022/01/06 05:40:01;;;;;;;;;;;1.50;99.90;;;;;;5014550;28;19909;-73
2022/01/06 05:42:27;;;;;;;;;;;1.50;99.90;;;;;;5013224;28;19909;-73
2022/01/06 05:44:52;;;;;;;;;;;1.40;99.90;;;;;;5014845;28;19909;-73
2022/01/06 05:47:18;;;;;;;;;;;1.40;99.90;;;;;;5014724;28;19917;-73
2022/01/06 05:49:44;;;;;;;;;;;1.50;99.90;;;;;;5013305;28;20384;-73
2022/01/06 05:52:09;;;;;;;;;;;1.50;99.90;;;;;;5014249;28;20287;-73
2022/01/06 05:54:35;;;;;;;;;;;1.50;99.90;;;;;;5014377;28;20363;-72
2022/01/06 05:57:00;;;;;;;;;;;1.50;99.90;;;;;;5014238;28;19913;-73
2022/01/06 05:59:28;;;;;;;;;;;1.40;99.90;;;;;;5014324;28;19944;-73
2022/01/06 06:01:54;;;;;;;;;;;1.40;99.90;;;;;;5014427;28;19936;-73
2022/01/06 06:04:20;;;;;;;;;;;1.20;99.90;;;;;;5014415;28;20360;-73
2022/01/06 06:06:45;;;;;;;;;;;1.30;99.90;;;;;;5014219;28;19913;-72
2022/01/06 06:09:11;;;;;;;;;;;1.30;99.90;;;;;;5014030;28;20314;-73
2022/01/06 06:11:37;;;;;;;;;;;1.30;99.90;;;;;;5014078;28;19928;-73
2022/01/06 06:14:03;;;;;;;;;;;1.20;99.90;;;;;;5013992;28;19913;-73
2022/01/06 06:16:28;;;;;;;;;;;1.20;99.90;;;;;;5011855;28;19916;-73
2022/01/06 06:18:54;;;;;;;;;;;1.20;99.90;;;;;;5002621;28;19914;-73
2022/01/06 06:21:19;;;;;;;;;;;1.10;99.90;;;;;;4994889;28;20008;-73
2022/01/06 06:23:45;;;;;;;;;;;1.10;99.90;;;;;;4993536;28;19918;-73
2022/01/06 06:26:11;;;;;;;;;;;1.00;99.90;;;;;;4994727;28;19913;-73
2022/01/06 06:28:37;;;;;;;;;;;1.10;99.90;;;;;;4999851;28;19941;-74
2022/01/06 06:31:02;;;;;;;;;;;1.10;99.90;;;;;;5007949;28;19917;-73
2022/01/06 06:33:28;;;;;;;;;;;1.10;99.90;;;;;;4994593;28;19964;-73
2022/01/06 06:35:54;;;;;;;;;;;1.10;99.90;;;;;;4994977;28;19910;-74
2022/01/06 06:38:19;;;;;;;;;;;1.10;99.90;;;;;;4994583;28;19909;-75
2022/01/06 06:40:45;;;;;;;;;;;1.10;99.90;;;;;;4993397;28;19910;-74
2022/01/06 06:43:12;;;;;;;;;;;1.10;99.90;;;;;;4993697;28;19967;-74
2022/01/06 06:45:37;;;;;;;;;;;1.20;99.90;;;;;;4994795;28;20261;-76
2022/01/06 06:48:03;;;;;;;;;;;1.60;99.90;;;;;;4994768;28;19910;-75
2022/01/06 06:50:29;;;;;;;;;;;1.40;99.90;;;;;;4994661;28;19917;-76
2022/01/06 06:52:54;;;;;;;;;;;1.30;99.90;;;;;;4994608;28;20012;-75
2022/01/06 06:55:20;;;;;;;;;;;1.30;99.90;;;;;;4993728;28;19914;-75
2022/01/06 06:57:45;;;;;;;;;;;1.30;99.90;;;;;;4995546;28;20288;-74
2022/01/06 07:00:11;;;;;;;;;;;1.20;99.90;;;;;;5002722;28;19987;-76
2022/01/06 07:02:37;;;;;;;;;;;1.20;99.90;;;;;;4990755;28;19917;-78
2022/01/06 07:05:03;;;;;;;;;;;1.20;99.90;;;;;;4994391;28;19917;-77
2022/01/06 07:07:28;;;;;;;;;;;1.20;99.90;;;;;;4992962;28;19910;-75
2022/01/06 07:09:54;;;;;;;;;;;1.20;99.90;;;;;;4994393;28;20331;-77
2022/01/06 07:12:19;;;;;;;;;;;1.20;99.90;;;;;;4993522;28;20012;-74
2022/01/06 07:14:45;;;;;;;;;;;1.20;99.90;;;;;;4992194;28;20280;-75
2022/01/06 07:17:11;;;;;;;;;;;1.20;99.90;;;;;;4992783;28;19914;-77
2022/01/06 07:19:37;;;;;;;;;;;1.10;99.90;;;;;;4992952;28;19914;-78
2022/01/06 07:22:03;;;;;;;;;;;1.10;99.90;;;;;;4992450;28;19982;-76
2022/01/06 07:24:28;;;;;;;;;;;1.10;99.90;;;;;;4992672;28;19945;-74
2022/01/06 07:26:54;;;;;;;;;;;1.20;99.90;;;;;;4993052;28;19997;-78
2022/01/06 07:29:20;;;;;;;;;;;1.10;99.90;;;;;;4993974;28;19956;-79
2022/01/06 07:31:45;;;;;;;;;;;1.10;99.90;;;;;;4993355;28;19918;-78
2022/01/06 07:34:11;;;;;;;;;;;1.20;99.90;;;;;;4993811;28;19917;-78
2022/01/06 07:36:36;;;;;;;;;;;1.20;99.90;;;;;;4992523;28;19945;-78
2022/01/06 07:39:03;;;;;;;;;;;1.20;99.90;;;;;;4993729;28;20009;-78
2022/01/06 07:41:29;;;;;;;;;;;1.20;99.90;;;;;;4993683;28;19917;-77
2022/01/06 07:43:54;;;;;;;;;;;1.20;99.90;;;;;;4993555;28;19914;-78
2022/01/06 07:46:20;;;;;;;;;;;1.20;99.90;;;;;;4993679;28;20000;-78
2022/01/06 07:48:56;;;;;;;;;;;1.20;99.90;;;;;;4993539;28;19909;-76
2022/01/06 07:51:25;;;;;;;;;;;1.20;99.90;;;;;;4993341;28;19918;-77
2022/01/06 07:53:51;;;;;;;;;;;1.30;99.90;;;;;;4993404;28;20292;-76
2022/01/06 07:56:17;;;;;;;;;;;1.60;99.90;;;;;;4993484;28;20272;-77
2022/01/06 07:58:43;;;;;;;;;;;1.60;99.90;;;;;;4993472;28;19913;-78
2022/01/06 08:01:09;;;;;;;;;;;1.50;99.90;;;;;;4993406;28;19913;-77
2022/01/06 08:03:35;;;;;;;;;;;1.60;99.90;;;;;;4993269;28;19914;-76
2022/01/06 08:06:00;;;;;;;;;;;1.70;99.90;;;;;;4993724;28;19964;-76
2022/01/06 08:08:26;;;;;;;;;;;1.80;99.90;;;;;;4993645;28;19945;-79
2022/01/06 08:10:52;;;;;;;;;;;2.00;99.90;;;;;;4993027;28;19917;-74
2022/01/06 08:13:17;;;;;;;;;;;2.00;99.90;;;;;;4993108;28;19951;-78
2022/01/06 08:15:43;;;;;;;;;;;2.00;99.90;;;;;;4993098;28;19910;-76
2022/01/06 08:18:09;;;;;;;;;;;2.10;99.90;;;;;;4992915;28;19914;-79
2022/01/06 08:20:36;;;;;;;;;;;2.30;99.90;;;;;;4991974;28;19913;-75
2022/01/06 08:23:02;;;;;;;;;;;2.40;99.90;;;;;;4993439;28;19996;-76
2022/01/06 08:25:27;;;;;;;;;;;2.40;99.90;;;;;;4993518;28;19910;-76
2022/01/06 08:27:53;;;;;;;;;;;2.00;99.90;;;;;;4993192;28;19913;-76
2022/01/06 08:30:19;;;;;;;;;;;2.10;99.90;;;;;;4993145;28;19913;-75
2022/01/06 08:32:44;;;;;;;;;;;2.00;99.90;;;;;;4993424;28;20344;-74
2022/01/06 08:35:10;;;;;;;;;;;1.90;99.90;;;;;;4991136;28;19921;-74
2022/01/06 08:37:36;;;;;;;;;;;2.30;99.90;;;;;;4992636;28;19910;-76
2022/01/06 08:40:01;;;;;;;;;;;2.20;99.90;;;;;;4993321;28;19917;-76
2022/01/06 08:42:27;;;;;;;;;;;2.40;99.90;;;;;;4993781;28;19917;-76
2022/01/06 08:44:53;;;;;;;;;;;2.30;99.90;;;;;;4996498;28;20264;-74
2022/01/06 08:47:18;;;;;;;;;;;2.10;99.90;;;;;;4996842;28;19965;-76
2022/01/06 08:49:44;;;;;;;;;;;2.20;99.90;;;;;;4996898;28;19909;-76
2022/01/06 08:52:09;;;;;;;;;;;2.20;99.90;;;;;;4996652;28;19922;-77
2022/01/06 08:54:35;;;;;;;;;;;2.20;99.90;;;;;;4996814;28;19924;-74
2022/01/06 08:57:01;;;;;;;;;;;2.50;99.90;;;;;;4997098;28;19916;-77
2022/01/06 08:59:26;;;;;;;;;;;2.90;99.90;;;;;;4996869;28;19917;-76
2022/01/06 09:01:52;;;;;;;;;;;2.80;99.90;;;;;;4996630;28;19917;-76
2022/01/06 09:04:20;;;;;;;;;;;2.70;99.90;;;;;;4996635;28;19941;-76
2022/01/06 09:06:49;;;;;;;;;;;3.20;99.90;;;;;;4996617;28;20035;-75
2022/01/06 09:09:14;;;;;;;;;;;3.20;99.90;;;;;;4996637;28;20005;-76
2022/01/06 09:11:40;;;;;;;;;;;3.10;99.90;;;;;;4996491;28;20359;-76
2022/01/06 09:14:06;;;;;;;;;;;3.30;99.90;;;;;;4996569;28;19913;-74
2022/01/06 09:16:32;;;;;;;;;;;3.00;99.90;;;;;;4996769;28;19936;-76
2022/01/06 09:18:57;;;;;;;;;;;2.80;99.90;;;;;;4996414;28;19957;-76
2022/01/06 09:21:24;;;;;;;;;;;;;;;;;;4996366;28;20008;-80
2022/01/06 09:23:54;;;;;;;;;;;3.80;99.90;;;;;;4996360;28;19909;-76
2022/01/06 09:26:20;;;;;;;;;;;3.00;99.90;;;;;;4995967;28;20352;-74
2022/01/06 09:28:46;;;;;;;;;;;3.30;99.90;;;;;;4992919;28;19920;-77
2022/01/06 09:31:11;;;;;;;;;;;3.30;99.90;;;;;;4995927;28;19914;-74
2022/01/06 09:33:37;;;;;;;;;;;3.20;99.90;;;;;;4995972;28;19918;-74
2022/01/06 09:36:03;;;;;;;;;;;3.30;99.90;;;;;;4996535;28;19916;-77
2022/01/06 09:38:28;;;;;;;;;;;3.20;99.90;;;;;;4996175;28;20353;-77
2022/01/06 09:40:54;;;;;;;;;;;3.40;99.90;;;;;;4996042;28;19910;-77
2022/01/06 09:43:23;;;;;;;;;;;2.90;99.90;;;;;;4996115;28;19980;-77
2022/01/06 09:45:49;;;;;;;;;;;2.80;99.90;;;;;;4995978;28;20325;-78
2022/01/06 09:48:15;;;;;;;;;;;3.30;99.90;;;;;;4996007;28;19945;-80
2022/01/06 09:50:42;;;;;;;;;;;3.80;99.90;;;;;;4995920;28;19917;-79
2022/01/06 09:53:10;;;;;;;;;;;3.20;99.90;;;;;;4995760;28;19921;-73
2022/01/06 09:55:37;;;;;;;;;;;3.00;99.90;;;;;;4995279;28;19910;-78
2022/01/06 09:58:03;;;;;;;;;;;3.10;99.90;;;;;;4995904;28;19937;-75
2022/01/06 10:00:29;;;;;;;;;;;3.10;99.90;;;;;;4995692;28;19913;-77
2022/01/06 10:02:56;;;;;;;;;;;3.10;99.90;;;;;;5006127;28;20271;-78
2022/01/06 10:05:23;;;;;;;;;;;3.00;99.90;;;;;;4995769;28;20040;-79
2022/01/06 10:07:48;;;;;;;;;;;3.40;99.90;;;;;;4994190;28;19917;-78
2022/01/06 10:10:15;;;;;;;;;;;3.80;99.90;;;;;;4995313;28;19913;-75
2022/01/06 10:12:41;;;;;;;;;;;3.80;99.90;;;;;;4994544;28;20278;-78
2022/01/06 10:15:17;;;;;;;;;;;3.50;99.90;;;;;;4995598;28;19913;-75
2022/01/06 10:17:43;;;;;;;;;;;3.60;99.90;;;;;;4994106;28;19967;-77
2022/01/06 10:20:20;;;;;;;;;;;3.70;99.90;;;;;;4995336;28;19992;-75
2022/01/06 10:22:53;;;;;;;;;;;3.90;99.90;;;;;;4995124;28;19936;-77
2022/01/06 10:25:19;;;;;;;;;;;4.80;99.90;;;;;;4995102;28;19940;-78
2022/01/06 10:27:46;;;;;;;;;;;5.10;99.90;;;;;;4993949;28;19917;-76
2022/01/06 10:30:13;;;;;;;;;;;4.40;99.90;;;;;;4995216;28;19909;-78
2022/01/06 10:32:39;;;;;;;;;;;4.90;99.90;;;;;;4995271;28;20383;-79
2022/01/06 10:35:06;;;;;;;;;;;4.90;99.90;;;;;;4995196;28;19917;-79
2022/01/06 10:37:38;;;;;;;;;;;4.30;99.90;;;;;;4994964;28;19910;-79
2022/01/06 10:40:06;;;;;;;;;;;4.20;99.90;;;;;;4994861;28;19913;-79
2022/01/06 10:42:33;;;;;;;;;;;3.50;99.90;;;;;;4994759;28;19910;-78
2022/01/06 10:45:04;;;;;;;;;;;3.70;99.90;;;;;;4993147;28;19920;-75
2022/01/06 10:47:30;;;;;;;;;;;3.10;99.90;;;;;;4994165;28;19961;-81
2022/01/06 10:50:09;;;;;;;;;;;3.10;99.90;;;;;;4994778;28;19913;-80
2022/01/06 10:52:35;;;;;;;;;;;3.40;99.90;;;;;;4994248;28;19928;-79
2022/01/06 10:55:09;;;;;;;;;;;3.20;99.90;;;;;;4994545;28;19980;-80
2022/01/06 10:57:34;;;;;;;;;;;3.50;99.90;;;;;;4994526;28;19996;-83
2022/01/06 11:00:00;;;;;;;;;;;3.20;99.90;;;;;;4994476;28;20337;-83
2022/01/06 11:02:25;;;;;;;;;;;3.40;99.90;;;;;;4993937;28;19996;-79
2022/01/06 11:04:51;;;;;;;;;;;4.10;99.90;;;;;;4993460;28;19949;-80
2022/01/06 11:07:17;;;;;;;;;;;4.20;99.90;;;;;;4992627;28;20000;-81
2022/01/06 11:09:47;;;;;;;;;;;4.10;99.90;;;;;;4994078;28;19910;-81
2022/01/06 11:12:26;;;;;;;;;;;3.90;99.90;;;;;;4994244;28;19960;-74
2022/01/06 11:14:53;;;;;;;;;;;4.10;99.90;;;;;;4994288;28;19910;-82
2022/01/06 11:17:21;;;;;;;;;;;4.00;99.90;;;;;;4994237;28;19910;-84
2022/01/06 11:19:50;;;;;;;;;;;3.60;99.90;;;;;;4994333;28;19914;-86
2022/01/06 11:22:22;;;;;;;;;;;3.30;99.90;;;;;;4992909;28;19910;-81
2022/01/06 11:24:54;;;;;;;;;;;3.40;99.90;;;;;;4990936;28;20284;-79
2022/01/06 11:27:32;;;;;;;;;;;3.50;99.90;;;;;;5110086;27;19916;-75
2022/01/06 11:30:08;;;;;;;;;;;3.60;99.90;;;;;;5110126;28;19919;-80
2022/01/06 11:32:33;;;;;;;;;;;3.30;99.90;;;;;;5110116;28;20243;-81
2022/01/06 11:35:03;;;;;;;;;;;3.40;99.90;;;;;;5110099;28;19912;-81
2022/01/06 11:37:43;;;;;;;;;;;4.10;99.90;;;;;;5110055;28;19965;-78
2022/01/06 11:40:10;;;;;;;;;;;4.10;99.90;;;;;;5108913;28;20380;-73
2022/01/06 11:42:36;;;;;;;;;;;3.80;99.90;;;;;;5109978;28;19916;-78
2022/01/06 11:45:05;;;;;;;;;;;4.00;99.90;;;;;;5109506;28;19973;-81
2022/01/06 11:47:35;;;;;;;;;;;4.60;99.90;;;;;;5109806;28;19916;-78
2022/01/06 11:50:08;;;;;;;;;;;4.50;99.90;;;;;;5109721;28;19961;-80
2022/01/06 11:52:34;;;;;;;;;;;4.20;99.90;;;;;;5109636;28;19916;-72
2022/01/06 11:55:02;;;;;;;;;;;3.70;99.90;;;;;;5109735;28;19916;-78
2022/01/06 11:57:35;;;;;;;;;;;4.10;99.90;;;;;;5108371;28;20313;-73
2022/01/06 12:00:13;;;;;;;;;;;3.70;99.90;;;;;;5108425;28;19961;-76
2022/01/06 12:02:39;;;;;;;;;;;4.20;99.90;;;;;;5108441;28;20271;-77
2022/01/06 12:05:05;;;;;;;;;;;4.30;99.90;;;;;;5109352;28;19931;-77
2022/01/06 12:07:31;;;;;;;;;;;4.40;99.90;;;;;;5109276;28;19923;-73
2022/01/06 12:10:02;;;;;;;;;;;4.30;99.90;;;;;;5109373;28;19916;-73
2022/01/06 12:12:36;;;;;;;;;;;4.10;99.90;;;;;;5109351;28;19916;-78
2022/01/06 12:15:06;;;;;;;;;;;3.80;99.90;;;;;;5109390;28;19916;-78
2022/01/06 12:17:31;;;;;;;;;;;4.30;99.90;;;;;;5107959;28;19923;-76
2022/01/06 12:19:58;;;;;;;;;;;4.20;99.90;;;;;;5109198;28;19916;-75
2022/01/06 12:22:26;;;;;;;;;;;4.50;99.90;;;;;;5109318;28;19912;-78
2022/01/06 12:25:04;;;;;;;;;;;3.80;99.90;;;;;;5098545;28;19916;-75
2022/01/06 12:27:30;;;;;;;;;;;4.70;99.90;;;;;;5109063;28;19965;-77
2022/01/06 12:29:56;;;;;;;;;;;4.70;99.90;;;;;;5101778;28;20010;-74
2022/01/06 12:32:22;;;;;;;;;;;4.00;99.90;;;;;;5088630;28;20037;-75
2022/01/06 12:34:54;;;;;;;;;;;4.60;99.90;;;;;;5105952;28;20007;-77
2022/01/06 12:37:26;;;;;;;;;;;4.60;99.90;;;;;;5103660;28;20385;-76
2022/01/06 12:39:52;;;;;;;;;;;5.10;99.90;;;;;;5092774;28;19924;-75
2022/01/06 12:42:17;;;;;;;;;;;5.00;99.90;;;;;;5074682;28;19916;-76
2022/01/06 12:44:43;;;;;;;;;;;4.30;99.90;;;;;;5075082;28;19912;-76
2022/01/06 12:47:09;;;;;;;;;;;4.80;99.90;;;;;;5073246;28;19966;-75
2022/01/06 12:49:34;;;;;;;;;;;4.30;99.90;;;;;;5074800;28;19913;-76
2022/01/06 12:52:01;;;;;;;;;;;5.20;99.90;;;;;;5080042;28;19947;-76
2022/01/06 12:54:30;;;;;;;;;;;5.80;99.90;;;;;;5095096;28;20463;-75
2022/01/06 12:56:56;;;;;;;;;;;5.60;99.90;;;;;;5094996;28;19912;-76
2022/01/06 12:59:33;;;;;;;;;;;5.40;99.90;;;;;;5093562;28;19939;-75
2022/01/06 13:02:00;;;;;;;;;;;5.10;99.90;;;;;;5094682;28;20288;-74
2022/01/06 13:04:27;;;;;;;;;;;5.00;99.90;;;;;;5094753;28;19919;-75
2022/01/06 13:06:56;;;;;;;;;;;4.90;99.90;;;;;;5086214;28;19924;-74
2022/01/06 13:09:23;;;;;;;;;;;4.80;99.90;;;;;;5074402;28;19940;-75
2022/01/06 13:11:51;;;;;;;;;;;5.30;99.90;;;;;;5074152;28;19917;-74
2022/01/06 13:14:36;;;;;;;;;;;5.40;99.90;;;;;;5073305;28;20023;-75
2022/01/06 13:17:22;;;;;;;;;;;5.70;99.90;;;;;;5074058;28;20365;-75
2022/01/06 13:19:53;;;;;;;;;;;5.70;99.90;;;;;;5074505;28;19920;-75
2022/01/06 13:25:19;;;;;;;;;;;5.90;99.90;;;;;;5082186;28;19954;-78
2022/01/06 13:28:06;;;;;;;;;;;5.70;99.90;;;;;;5094549;28;19918;-79
2022/01/06 13:30:33;;;;;;;;;;;5.30;99.90;;;;;;5094285;28;19911;-79
2022/01/06 13:32:59;;;;;;;;;;;5.00;99.90;;;;;;5082655;28;19924;-78
2022/01/06 13:35:24;;;;;;;;;;;4.60;99.90;;;;;;5073954;28;19966;-79
2022/01/06 13:37:50;;;;;;;;;;;4.50;99.90;;;;;;5073920;28;20430;-77
2022/01/06 13:40:16;;;;;;;;;;;4.30;99.90;;;;;;5074070;28;19916;-79
2022/01/06 13:42:44;;;;;;;;;;;4.30;99.90;;;;;;5073595;28;19962;-78
2022/01/06 13:48:02;;;;;;;;;;;4.70;99.90;;;;;;5073757;28;20409;-79
2022/01/06 13:53:18;;;;;;;;;;;4.40;99.90;;;;;;5073405;28;19923;-75
2022/01/06 13:56:13;;;;;;;;;;;4.20;99.90;;;;;;5073320;28;20007;-79
2022/01/06 13:58:40;;;;;;;;;;;4.20;99.90;;;;;;5064107;28;19928;-76
2022/01/06 14:01:06;;;;;;;;;;;4.00;99.90;;;;;;5088531;28;19919;-78
2022/01/06 14:03:33;;;;;;;;;;;4.00;99.90;;;;;;5093557;28;19912;-78
2022/01/06 14:06:00;;;;;;;;;;;4.00;99.90;;;;;;5093371;28;19989;-73
2022/01/06 14:08:25;;;;;;;;;;;3.90;99.90;;;;;;5093386;28;20396;-78
2022/01/06 14:10:51;;;;;;;;;;;3.80;99.90;;;;;;5093690;28;20002;-75
2022/01/06 14:13:17;;;;;;;;;;;3.80;99.90;;;;;;5093565;28;19912;-79
2022/01/06 14:15:44;;;;;;;;;;;3.80;99.90;;;;;;5093251;28;19912;-78
2022/01/06 14:18:10;;;;;;;;;;;3.70;99.90;;;;;;5093224;28;20002;-76
2022/01/06 14:20:36;;;;;;;;;;;3.70;99.90;;;;;;5091859;28;19912;-78
2022/01/06 14:23:01;;;;;;;;;;;3.70;99.90;;;;;;5093163;28;20351;-77
2022/01/06 14:25:27;;;;;;;;;;;3.70;99.90;;;;;;5093018;28;19920;-79
2022/01/06 14:27:53;;;;;;;;;;;3.60;99.90;;;;;;5092838;28;19912;-77
2022/01/06 14:30:20;;;;;;;;;;;3.60;99.90;;;;;;5093147;28;20010;-79
2022/01/06 14:32:46;;;;;;;;;;;3.50;99.90;;;;;;5092856;28;20382;-79
2022/01/06 14:35:12;;;;;;;;;;;3.60;99.90;;;;;;5087891;28;20008;-79
2022/01/06 14:37:38;;;;;;;;;;;3.60;99.90;;;;;;5072660;28;19912;-73
2022/01/06 14:40:03;;;;;;;;;;;3.60;99.90;;;;;;5072674;28;19915;-73
2022/01/06 14:42:29;;;;;;;;;;;4.00;99.90;;;;;;5072516;28;19913;-72
2022/01/06 14:44:55;;;;;;;;;;;4.00;99.90;;;;;;5072691;28;19932;-71
2022/01/06 14:47:20;;;;;;;;;;;3.90;99.90;;;;;;5080559;28;19924;-71
2022/01/06 14:49:46;;;;;;;;;;;3.90;99.90;;;;;;5092458;28;19958;-71